KERV/ERV METAR and TAF weather

Enter ICAO airport designator
Station Type Date Time Source
KERV METAR 2020/09/25 18:15 UTC NOAA

KERV 251815Z AUTO 18008KT 10SM SCT022 26/20 A3004 RMK AO2 T02620199


Station Type Date Time Source
KERV Decoded METAR 2020/09/25 18:15 UTC NOAA

Kerrville, Kerrville Municipal Airport/Louis Schreiner Field, TX, United States (KERV) 29-58N 099-05W
Sep 25, 2020 - 02:15 PM EDT / 2020.09.25 1815 UTC
Wind: from the S (180 degrees) at 9 MPH (8 KT):0
Visibility: 10 mile(s):0
Sky conditions: partly cloudy
Temperature: 79.2 F (26.2 C)
Dew Point: 67.8 F (19.9 C)
Relative Humidity: 68%
Pressure (altimeter): 30.04 in. Hg (1017 hPa)
ob: KERV 251815Z AUTO 18008KT 10SM SCT022 26/20 A3004 RMK AO2 T02620199
cycle: 18

Station Type Date Time Source
KERV TAF UTC NOAA

Error!

Example: see airport list